Aérodrome :
LOGIN :

S'inscrire | Disclaimer

   EN    FR    IT 

 










Légende :    VFR   VFR Marginal   IFR   IFR Intensif   IFR Très Intensif
Visi : 
Plafond : 
>= 8 km
>= 3000ft
5 à 8 km
1000 à 3000 ft
1500m à 5 km
500 à 1000 ft
800 à 1500m
200 à 500 ft
< 800m
< 200 ft
Symboles :   Orages  Brouillard  Fortes neiges  Fortes précipitations  Vent > 20 kt
SIGMETs :   Divers  Orages  Givrage  Turbulence  Onde Orograph.  Cendres Volcan.







- Altitude de l'aérodrome : 1906 ft
- Code IATA : INN


LOWI - Innsbruck

DERNIER METAR :
  • 260350Z 26003KT 9999 FEW006 SCT011 BKN055 11/10 Q1018 NOSIG

METARs EXPIRÉS :
  • 260320Z AUTO 26004KT 9999 -SHRA FEW006 BKN011 11/10 Q1018
  • 260250Z AUTO VRB02KT 9999 -SHRA BKN008 11/10 Q1018
  • 260220Z AUTO 26005KT 9999 -SHRA FEW007 BKN009 11/10 Q1018
  • 260150Z AUTO 27008KT 9999 -DZ FEW006 BKN009 BKN044 11/10 Q1018
  • 260120Z AUTO 25003KT 180V290 9999 -DZ FEW007 BKN009 11/10 Q1017

TAF AMD TAF LOWI
Valide du 26 à 02h jusqu'au 27 à 00h UTC


260225Z 2602/2624 27004KT 9999 FEW010 BKN060 TX22/2614Z TN10/2603Z
TEMPO 2602/2606 -SHRA FEW006 BKN008
BECMG 2608/2610 08006KT FEW040 SCT060
TEMPO 2614/2618 08010KT -SHRA BKN060 FEW060TCU
Pas de NOTAMs connus pour ce terrain.



MET'MAP, la Météo Aéronautique d'un coup d'oeil ! - Copyright ORBIFLY Décembre 2007 - Disclaimer

ORBIFLY MET'MAP TEAM :

Programmation & Développement : Alexandra Zaïnal
Conception & Développement : Baudouin d'Aumeries
Co-Programmation & Développement : Marc-Olivier Méhu
Soutien technique & logistique : Manuel Goepfert

Contact : metmap@orbifly.com




SOURCES & CREDITS :

   NOAA